Аэропорт: Минеральные Воды. Минеральные Воды

ICAO: URMM

METAR:
2019-07-23 18:30:00
URMM 231830Z 12005MPS 9999 SCT045 19/16 Q1011 R12/190160 NOSIG RMK QFE731/0974
METAR:
2019-07-23 17:00:00
TAF URMM 231700Z 2318/2418 10003G08MPS 9999 BKN020 TX26/2412Z TN17/2402Z TEMPO 2318/2418 VRB06G14MPS 3100 -TSRA BKN015 BKN020CB